Aviation Digital Data Service (ADDS)

Output produced by METARs form (1345 UTC 20 August 2017)
found at http://www.aviationweather.gov/adds/metars/
 
OSDI 201300Z 20012KT CAVOK 39/04 Q1010
OSDI 201000Z 2012/2118 22015G25KT 9999 FEW030 
     TEMPO 2018/2112 VRB03KT CAVOK
       
OSKL 201300Z 29012KT CAVOK 39/M01 Q1008
OSLK 201300Z 27008KT 9999 FEW030 31/23 Q1009
OSLK 201000Z 2012/2112 23010KT 9999 FEW030 
     TEMPO 2022/2106 10005KT CAVOK
       
OSLK 201300Z 27008KT 9999 FEW030 31/23 Q1009
OSLK 201000Z 2012/2112 23010KT 9999 FEW030 
     TEMPO 2022/2106 10005KT CAVOK
       
OSDI 201300Z 20012KT CAVOK 39/04 Q1010
OSDI 201000Z 2012/2118 22015G25KT 9999 FEW030 
     TEMPO 2018/2112 VRB03KT CAVOK
       
OSKL 201300Z 29012KT CAVOK 39/M01 Q1008